sensor_id;sensor_type;location;lat;lon;timestamp;pressure;altitude;pressure_sealevel;temperature;humidity
57234;BME280;43090;52.604;13.318;2024-03-08T00:00:07;101842.88;;;0.37;88.55
57234;BME280;43090;52.604;13.318;2024-03-08T00:02:39;101824.31;;;0.46;88.72
57234;BME280;43090;52.604;13.318;2024-03-08T00:05:07;101834.88;;;0.43;88.12
57234;BME280;43090;52.604;13.318;2024-03-08T00:07:38;101822.47;;;0.55;88.28
57234;BME280;43090;52.604;13.318;2024-03-08T00:10:06;101824.44;;;0.34;87.72
57234;BME280;43090;52.604;13.318;2024-03-08T00:12:42;101819.19;;;0.34;87.77
57234;BME280;43090;52.604;13.318;2024-03-08T00:15:09;101800.72;;;0.36;87.14
57234;BME280;43090;52.604;13.318;2024-03-08T00:17:37;101831.25;;;0.54;87.20
57234;BME280;43090;52.604;13.318;2024-03-08T00:20:05;101835.78;;;0.41;87.67
57234;BME280;43090;52.604;13.318;2024-03-08T00:22:35;101809.53;;;0.31;88.14
57234;BME280;43090;52.604;13.318;2024-03-08T00:25:05;101850.56;;;0.56;87.86
57234;BME280;43090;52.604;13.318;2024-03-08T00:27:36;101823.59;;;0.33;87.02
57234;BME280;43090;52.604;13.318;2024-03-08T00:30:03;101835.78;;;0.44;88.06
57234;BME280;43090;52.604;13.318;2024-03-08T00:32:29;101818.09;;;0.52;86.37
57234;BME280;43090;52.604;13.318;2024-03-08T00:34:58;101841.88;;;0.49;87.25
57234;BME280;43090;52.604;13.318;2024-03-08T00:37:24;101843.88;;;0.24;86.98
57234;BME280;43090;52.604;13.318;2024-03-08T00:39:51;101796.22;;;-0.42;89.36
57234;BME280;43090;52.604;13.318;2024-03-08T00:42:19;101835.34;;;-0.02;89.32
57234;BME280;43090;52.604;13.318;2024-03-08T00:44:47;101836.00;;;0.22;88.22
57234;BME280;43090;52.604;13.318;2024-03-08T00:47:14;101842.00;;;0.37;88.27
57234;BME280;43090;52.604;13.318;2024-03-08T00:49:41;101835.06;;;0.29;87.91
57234;BME280;43090;52.604;13.318;2024-03-08T00:52:08;101821.16;;;0.15;88.47
57234;BME280;43090;52.604;13.318;2024-03-08T00:54:35;101801.09;;;0.02;88.06
57234;BME280;43090;52.604;13.318;2024-03-08T00:57:04;101812.47;;;0.04;89.06
57234;BME280;43090;52.604;13.318;2024-03-08T00:59:33;101816.72;;;0.17;88.58
57234;BME280;43090;52.604;13.318;2024-03-08T01:02:01;101798.31;;;0.15;87.51
57234;BME280;43090;52.604;13.318;2024-03-08T01:04:27;101820.28;;;0.16;87.50
57234;BME280;43090;52.604;13.318;2024-03-08T01:06:57;101822.69;;;0.35;87.27
57234;BME280;43090;52.604;13.318;2024-03-08T01:09:25;101814.84;;;0.28;87.35
57234;BME280;43090;52.604;13.318;2024-03-08T01:11:54;101788.56;;;0.25;86.40
57234;BME280;43090;52.604;13.318;2024-03-08T01:14:24;101800.72;;;0.36;85.99
57234;BME280;43090;52.604;13.318;2024-03-08T01:16:55;101772.03;;;0.11;88.04
57234;BME280;43090;52.604;13.318;2024-03-08T01:19:23;101807.69;;;0.43;87.46
57234;BME280;43090;52.604;13.318;2024-03-08T01:21:50;101791.91;;;0.40;86.41
57234;BME280;43090;52.604;13.318;2024-03-08T01:24:17;101781.81;;;-0.01;87.42
57234;BME280;43090;52.604;13.318;2024-03-08T01:26:44;101802.91;;;-0.04;88.99
57234;BME280;43090;52.604;13.318;2024-03-08T01:29:11;101789.75;;;-0.07;90.35
57234;BME280;43090;52.604;13.318;2024-03-08T01:31:37;101794.13;;;-0.03;90.63
57234;BME280;43090;52.604;13.318;2024-03-08T01:34:04;101781.03;;;-0.13;91.23
57234;BME280;43090;52.604;13.318;2024-03-08T01:36:31;101792.25;;;0.09;89.88
57234;BME280;43090;52.604;13.318;2024-03-08T01:38:57;101790.66;;;-0.09;89.22
57234;BME280;43090;52.604;13.318;2024-03-08T01:41:24;101775.00;;;-0.23;90.56
57234;BME280;43090;52.604;13.318;2024-03-08T01:43:51;101781.81;;;-0.01;89.24
57234;BME280;43090;52.604;13.318;2024-03-08T01:46:21;101770.56;;;-0.17;89.49
57234;BME280;43090;52.604;13.318;2024-03-08T01:48:49;101786.13;;;0.05;88.14
57234;BME280;43090;52.604;13.318;2024-03-08T01:51:18;101748.47;;;0.00;87.75
57234;BME280;43090;52.604;13.318;2024-03-08T01:53:46;101738.16;;;-0.23;88.21
57234;BME280;43090;52.604;13.318;2024-03-08T01:56:13;101747.81;;;-0.24;88.98
57234;BME280;43090;52.604;13.318;2024-03-08T01:58:43;101764.53;;;-0.29;88.53
57234;BME280;43090;52.604;13.318;2024-03-08T02:01:13;101747.81;;;-0.22;89.03
57234;BME280;43090;52.604;13.318;2024-03-08T02:03:42;101755.72;;;-0.25;89.51
57234;BME280;43090;52.604;13.318;2024-03-08T02:06:13;101747.91;;;-0.33;90.25
57234;BME280;43090;52.604;13.318;2024-03-08T02:08:44;101752.91;;;-0.08;88.66
57234;BME280;43090;52.604;13.318;2024-03-08T02:11:12;101746.75;;;-0.07;88.53
57234;BME280;43090;52.604;13.318;2024-03-08T02:13:39;101751.97;;;0.01;89.32
57234;BME280;43090;52.604;13.318;2024-03-08T02:16:05;101753.91;;;-0.20;89.56
57234;BME280;43090;52.604;13.318;2024-03-08T02:18:34;101753.03;;;-0.19;90.41
57234;BME280;43090;52.604;13.318;2024-03-08T02:21:03;101746.09;;;-0.29;91.00
57234;BME280;43090;52.604;13.318;2024-03-08T02:23:30;101728.72;;;-0.46;90.62
57234;BME280;43090;52.604;13.318;2024-03-08T02:25:58;101724.34;;;-0.47;90.63
57234;BME280;43090;52.604;13.318;2024-03-08T02:28:25;101728.66;;;-0.38;90.49
57234;BME280;43090;52.604;13.318;2024-03-08T02:46:27;101731.16;;;-1.38;100.00
57234;BME280;43090;52.604;13.318;2024-03-08T02:48:53;101742.19;;;-0.83;98.64
57234;BME280;43090;52.604;13.318;2024-03-08T02:51:20;101718.69;;;-1.05;98.58
57234;BME280;43090;52.604;13.318;2024-03-08T02:53:47;101709.88;;;-0.97;98.05
57234;BME280;43090;52.604;13.318;2024-03-08T02:56:15;101708.91;;;-0.84;96.16
57234;BME280;43090;52.604;13.318;2024-03-08T02:58:43;101708.13;;;-0.98;95.44
57234;BME280;43090;52.604;13.318;2024-03-08T03:01:15;101692.16;;;-0.77;94.62
57234;BME280;43090;52.604;13.318;2024-03-08T03:03:42;101696.63;;;-0.82;93.33
57234;BME280;43090;52.604;13.318;2024-03-08T03:06:09;101715.94;;;-0.89;95.39
57234;BME280;43090;52.604;13.318;2024-03-08T03:08:36;101698.34;;;-0.81;95.07
57234;BME280;43090;52.604;13.318;2024-03-08T03:11:03;101713.94;;;-0.58;93.45
57234;BME280;43090;52.604;13.318;2024-03-08T03:13:29;101723.66;;;-0.69;92.88
57234;BME280;43090;52.604;13.318;2024-03-08T03:15:56;101715.81;;;-0.74;94.17
57234;BME280;43090;52.604;13.318;2024-03-08T03:18:24;101699.50;;;-1.18;95.78
57234;BME280;43090;52.604;13.318;2024-03-08T03:20:52;101719.19;;;-0.56;93.82
57234;BME280;43090;52.604;13.318;2024-03-08T03:23:19;101721.78;;;-0.55;92.96
57234;BME280;43090;52.604;13.318;2024-03-08T03:25:47;101702.78;;;-0.85;92.69
57234;BME280;43090;52.604;13.318;2024-03-08T03:28:13;101727.16;;;-0.67;93.50
57234;BME280;43090;52.604;13.318;2024-03-08T03:30:47;101725.31;;;-0.57;92.92
57234;BME280;43090;52.604;13.318;2024-03-08T03:33:13;101722.84;;;-0.76;93.80
57234;BME280;43090;52.604;13.318;2024-03-08T03:35:42;101708.72;;;-0.64;92.64
57234;BME280;43090;52.604;13.318;2024-03-08T03:38:09;101694.84;;;-0.81;92.73
57234;BME280;43090;52.604;13.318;2024-03-08T03:40:38;101723.69;;;-0.71;92.82
57234;BME280;43090;52.604;13.318;2024-03-08T03:43:06;101714.03;;;-0.72;93.08
57234;BME280;43090;52.604;13.318;2024-03-08T03:45:34;101703.56;;;-0.75;92.79
57234;BME280;43090;52.604;13.318;2024-03-08T03:48:04;101701.88;;;-0.82;92.92
57234;BME280;43090;52.604;13.318;2024-03-08T03:50:31;101687.84;;;-0.82;92.52
57234;BME280;43090;52.604;13.318;2024-03-08T03:53:01;101702.78;;;-0.88;93.07
57234;BME280;43090;52.604;13.318;2024-03-08T03:55:29;101705.34;;;-0.80;92.64
57234;BME280;43090;52.604;13.318;2024-03-08T03:57:56;101690.50;;;-0.86;91.98
57234;BME280;43090;52.604;13.318;2024-03-08T04:00:22;101688.72;;;-0.84;92.31
57234;BME280;43090;52.604;13.318;2024-03-08T04:02:49;101715.78;;;-0.69;91.68
57234;BME280;43090;52.604;13.318;2024-03-08T04:05:16;101676.69;;;-1.14;93.43
57234;BME280;43090;52.604;13.318;2024-03-08T04:07:43;101686.25;;;-1.04;94.39
57234;BME280;43090;52.604;13.318;2024-03-08T04:10:11;101687.88;;;-0.86;93.40
57234;BME280;43090;52.604;13.318;2024-03-08T04:12:38;101695.66;;;-0.70;92.44
57234;BME280;43090;52.604;13.318;2024-03-08T04:15:04;101715.75;;;-0.68;92.71
57234;BME280;43090;52.604;13.318;2024-03-08T04:17:34;101706.38;;;-0.96;93.52
57234;BME280;43090;52.604;13.318;2024-03-08T04:20:04;101702.75;;;-0.86;92.77
57234;BME280;43090;52.604;13.318;2024-03-08T04:22:39;101671.31;;;-0.94;92.45
57234;BME280;43090;52.604;13.318;2024-03-08T04:25:06;101674.78;;;-0.92;92.06
57234;BME280;43090;52.604;13.318;2024-03-08T04:27:35;101695.53;;;-0.58;91.51
57234;BME280;43090;52.604;13.318;2024-03-08T04:30:02;101675.56;;;-0.80;91.77
57234;BME280;43090;52.604;13.318;2024-03-08T04:32:29;101688.88;;;-1.04;93.41
57234;BME280;43090;52.604;13.318;2024-03-08T04:34:56;101680.91;;;-0.93;92.14
57234;BME280;43090;52.604;13.318;2024-03-08T04:37:23;101686.19;;;-0.94;92.16
57234;BME280;43090;52.604;13.318;2024-03-08T04:39:50;101695.88;;;-1.01;92.79
57234;BME280;43090;52.604;13.318;2024-03-08T04:42:17;101689.69;;;-0.95;92.79
57234;BME280;43090;52.604;13.318;2024-03-08T04:44:44;101701.84;;;-0.80;92.19
57234;BME280;43090;52.604;13.318;2024-03-08T04:47:12;101693.94;;;-0.79;92.24
57234;BME280;43090;52.604;13.318;2024-03-08T04:49:38;101678.38;;;-1.04;92.08
57234;BME280;43090;52.604;13.318;2024-03-08T04:52:07;101686.31;;;-1.08;93.25
57234;BME280;43090;52.604;13.318;2024-03-08T04:54:33;101703.59;;;-0.78;93.72
57234;BME280;43090;52.604;13.318;2024-03-08T04:57:01;101671.41;;;-1.08;93.20
57234;BME280;43090;52.604;13.318;2024-03-08T04:59:32;101702.06;;;-1.07;94.96
57234;BME280;43090;52.604;13.318;2024-03-08T05:01:59;101667.88;;;-1.05;95.28
57234;BME280;43090;52.604;13.318;2024-03-08T05:04:26;101666.06;;;-0.98;94.54
57234;BME280;43090;52.604;13.318;2024-03-08T05:06:52;101648.53;;;-0.99;94.08
57234;BME280;43090;52.604;13.318;2024-03-08T05:09:20;101678.94;;;-0.68;92.85
57234;BME280;43090;52.604;13.318;2024-03-08T05:11:47;101683.31;;;-0.67;92.07
57234;BME280;43090;52.604;13.318;2024-03-08T05:14:14;101679.81;;;-0.65;91.19
57234;BME280;43090;52.604;13.318;2024-03-08T05:16:44;101659.84;;;-0.87;91.37
57234;BME280;43090;52.604;13.318;2024-03-08T05:19:16;101659.03;;;-0.95;91.85
57234;BME280;43090;52.604;13.318;2024-03-08T05:21:47;101677.22;;;-0.69;91.39
57234;BME280;43090;52.604;13.318;2024-03-08T05:24:14;101694.69;;;-0.63;92.35
57234;BME280;43090;52.604;13.318;2024-03-08T05:26:42;101705.22;;;-0.68;92.36
57234;BME280;43090;52.604;13.318;2024-03-08T05:29:09;101676.44;;;-0.80;92.20
57234;BME280;43090;52.604;13.318;2024-03-08T05:31:47;101678.97;;;-0.71;92.42
57234;BME280;43090;52.604;13.318;2024-03-08T05:34:15;101682.53;;;-0.75;92.42
57234;BME280;43090;52.604;13.318;2024-03-08T05:36:42;101693.00;;;-0.72;92.60
57234;BME280;43090;52.604;13.318;2024-03-08T05:39:13;101689.53;;;-0.77;92.32
57234;BME280;43090;52.604;13.318;2024-03-08T05:41:39;101683.41;;;-0.76;92.64
57234;BME280;43090;52.604;13.318;2024-03-08T05:44:07;101677.28;;;-0.76;93.31
57234;BME280;43090;52.604;13.318;2024-03-08T05:46:34;101686.88;;;-0.72;93.02
57234;BME280;43090;52.604;13.318;2024-03-08T05:49:06;101651.97;;;-0.90;92.55
57234;BME280;43090;52.604;13.318;2024-03-08T05:51:33;101653.72;;;-0.87;92.32
57234;BME280;43090;52.604;13.318;2024-03-08T05:54:06;101674.50;;;-0.62;92.14
57234;BME280;43090;52.604;13.318;2024-03-08T05:56:33;101679.00;;;-0.77;92.01
57234;BME280;43090;52.604;13.318;2024-03-08T05:59:00;101680.81;;;-0.79;92.28
57234;BME280;43090;52.604;13.318;2024-03-08T06:01:27;101680.09;;;-0.96;92.95
57234;BME280;43090;52.604;13.318;2024-03-08T06:03:55;101679.25;;;-1.03;94.67
57234;BME280;43090;52.604;13.318;2024-03-08T06:06:23;101679.88;;;-0.73;93.59
57234;BME280;43090;52.604;13.318;2024-03-08T06:08:50;101679.84;;;-0.69;93.23
57234;BME280;43090;52.604;13.318;2024-03-08T06:11:20;101666.97;;;-1.01;93.53
57234;BME280;43090;52.604;13.318;2024-03-08T06:13:48;101645.91;;;-0.96;92.96
57234;BME280;43090;52.604;13.318;2024-03-08T06:16:16;101685.94;;;-0.63;92.87
57234;BME280;43090;52.604;13.318;2024-03-08T06:18:42;101699.88;;;-0.55;92.88
57234;BME280;43090;52.604;13.318;2024-03-08T06:21:09;101693.81;;;-0.62;93.65
57234;BME280;43090;52.604;13.318;2024-03-08T06:23:38;101694.63;;;-0.55;92.90
57234;BME280;43090;52.604;13.318;2024-03-08T06:26:05;101691.03;;;-0.45;93.34
57234;BME280;43090;52.604;13.318;2024-03-08T06:28:31;101689.22;;;-0.43;92.86
57234;BME280;43090;52.604;13.318;2024-03-08T06:31:02;101684.97;;;-0.56;93.59
57234;BME280;43090;52.604;13.318;2024-03-08T06:33:29;101683.09;;;-0.42;92.51
57234;BME280;43090;52.604;13.318;2024-03-08T06:35:57;101668.97;;;-0.36;92.23
57234;BME280;43090;52.604;13.318;2024-03-08T06:38:24;101672.50;;;-0.37;93.56
57234;BME280;43090;52.604;13.318;2024-03-08T06:40:52;101700.75;;;-0.56;95.62
57234;BME280;43090;52.604;13.318;2024-03-08T06:43:18;101686.66;;;-0.49;95.98
57234;BME280;43090;52.604;13.318;2024-03-08T06:45:45;101699.72;;;-0.40;96.13
57234;BME280;43090;52.604;13.318;2024-03-08T06:48:16;101701.25;;;-0.19;96.28
57234;BME280;43090;52.604;13.318;2024-03-08T06:50:44;101683.59;;;-0.07;96.14
57234;BME280;43090;52.604;13.318;2024-03-08T06:53:12;101665.06;;;0.01;94.21
57234;BME280;43090;52.604;13.318;2024-03-08T06:55:39;101684.25;;;0.09;93.24
57234;BME280;43090;52.604;13.318;2024-03-08T06:58:05;101673.75;;;0.07;92.94
57234;BME280;43090;52.604;13.318;2024-03-08T07:00:33;101667.63;;;0.05;93.64
57234;BME280;43090;52.604;13.318;2024-03-08T07:03:00;101668.34;;;0.18;92.92
57234;BME280;43090;52.604;13.318;2024-03-08T07:05:30;101661.59;;;-0.03;91.30
57234;BME280;43090;52.604;13.318;2024-03-08T07:07:57;101695.31;;;0.39;90.21
57234;BME280;43090;52.604;13.318;2024-03-08T07:10:25;101668.19;;;0.29;89.68
57234;BME280;43090;52.604;13.318;2024-03-08T07:12:52;101676.75;;;0.48;89.82
57234;BME280;43090;52.604;13.318;2024-03-08T07:15:22;101661.78;;;0.48;89.61
57234;BME280;43090;52.604;13.318;2024-03-08T07:17:50;101685.66;;;0.38;89.73
57234;BME280;43090;52.604;13.318;2024-03-08T07:20:19;101673.25;;;0.46;90.46
57234;BME280;43090;52.604;13.318;2024-03-08T07:22:56;101666.00;;;0.60;87.50
57234;BME280;43090;52.604;13.318;2024-03-08T07:25:23;101663.25;;;0.70;88.05
57234;BME280;43090;52.604;13.318;2024-03-08T07:27:56;101658.97;;;0.61;88.82
57234;BME280;43090;52.604;13.318;2024-03-08T07:30:25;101655.09;;;0.85;87.90
57234;BME280;43090;52.604;13.318;2024-03-08T07:33:07;101675.91;;;1.04;87.12
57234;BME280;43090;52.604;13.318;2024-03-08T07:35:34;101650.66;;;0.87;86.64
57234;BME280;43090;52.604;13.318;2024-03-08T07:38:07;101680.13;;;1.12;86.54
57234;BME280;43090;52.604;13.318;2024-03-08T07:40:36;101671.31;;;1.13;86.13
57234;BME280;43090;52.604;13.318;2024-03-08T07:43:06;101661.97;;;1.47;84.85
57234;BME280;43090;52.604;13.318;2024-03-08T07:45:32;101677.56;;;1.59;85.04
57234;BME280;43090;52.604;13.318;2024-03-08T07:47:59;101679.03;;;1.74;84.92
57234;BME280;43090;52.604;13.318;2024-03-08T07:50:25;101668.44;;;1.76;83.91
57234;BME280;43090;52.604;13.318;2024-03-08T07:52:52;101671.13;;;2.18;82.75
57234;BME280;43090;52.604;13.318;2024-03-08T07:55:19;101636.38;;;1.94;80.54
57234;BME280;43090;52.604;13.318;2024-03-08T07:57:45;101670.25;;;2.17;80.43
57234;BME280;43090;52.604;13.318;2024-03-08T08:00:13;101663.88;;;2.28;80.57
57234;BME280;43090;52.604;13.318;2024-03-08T08:02:44;101625.50;;;2.10;80.94
57234;BME280;43090;52.604;13.318;2024-03-08T08:05:12;101626.41;;;2.09;80.77
57234;BME280;43090;52.604;13.318;2024-03-08T08:07:39;101628.34;;;2.41;81.40
57234;BME280;43090;52.604;13.318;2024-03-08T08:10:10;101659.56;;;2.63;78.19
57234;BME280;43090;52.604;13.318;2024-03-08T08:12:48;101640.50;;;3.22;75.30
57234;BME280;43090;52.604;13.318;2024-03-08T08:15:24;101642.56;;;3.09;76.23
57234;BME280;43090;52.604;13.318;2024-03-08T08:17:51;101637.84;;;3.22;76.22
57234;BME280;43090;52.604;13.318;2024-03-08T08:20:20;101643.88;;;3.27;74.21
57234;BME280;43090;52.604;13.318;2024-03-08T08:22:48;101619.78;;;3.04;73.01
57234;BME280;43090;52.604;13.318;2024-03-08T08:25:33;101657.69;;;3.06;74.54
57234;BME280;43090;52.604;13.318;2024-03-08T08:28:01;101628.16;;;3.21;76.04
57234;BME280;43090;52.604;13.318;2024-03-08T08:30:39;101603.69;;;3.13;74.48
57234;BME280;43090;52.604;13.318;2024-03-08T08:33:19;101630.84;;;3.20;73.28
57234;BME280;43090;52.604;13.318;2024-03-08T08:35:46;101614.34;;;3.10;74.26
57234;BME280;43090;52.604;13.318;2024-03-08T08:38:14;101607.06;;;3.18;73.72
57234;BME280;43090;52.604;13.318;2024-03-08T08:40:40;101618.69;;;3.12;70.32
57234;BME280;43090;52.604;13.318;2024-03-08T08:46:21;101590.09;;;3.25;69.15
57234;BME280;43090;52.604;13.318;2024-03-08T08:48:47;101635.81;;;3.65;68.89
57234;BME280;43090;52.604;13.318;2024-03-08T08:51:14;101602.28;;;3.32;68.17
57234;BME280;43090;52.604;13.318;2024-03-08T08:53:42;101604.19;;;3.90;70.66
57234;BME280;43090;52.604;13.318;2024-03-08T08:56:17;101629.78;;;4.21;70.64
57234;BME280;43090;52.604;13.318;2024-03-08T08:59:05;101575.88;;;4.21;71.03
57234;BME280;43090;52.604;13.318;2024-03-08T09:05:39;101583.06;;;4.74;67.03
57234;BME280;43090;52.604;13.318;2024-03-08T09:08:24;101591.94;;;4.73;65.10
57234;BME280;43090;52.604;13.318;2024-03-08T09:10:52;101578.88;;;4.66;63.55
57234;BME280;43090;52.604;13.318;2024-03-08T09:13:24;101563.63;;;4.98;64.67
57234;BME280;43090;52.604;13.318;2024-03-08T09:20:25;101556.31;;;4.80;60.53
57234;BME280;43090;52.604;13.318;2024-03-08T09:23:24;101555.69;;;4.98;61.47
57234;BME280;43090;52.604;13.318;2024-03-08T09:26:12;101586.47;;;5.04;61.03
57234;BME280;43090;52.604;13.318;2024-03-08T09:28:53;101563.75;;;4.95;60.64
57234;BME280;43090;52.604;13.318;2024-03-08T09:31:27;101552.22;;;4.70;60.42
57234;BME280;43090;52.604;13.318;2024-03-08T09:34:10;101546.53;;;4.82;57.48
57234;BME280;43090;52.604;13.318;2024-03-08T09:37:27;101551.91;;;5.06;59.49
57234;BME280;43090;52.604;13.318;2024-03-08T09:53:53;101536.56;;;5.63;56.82
57234;BME280;43090;52.604;13.318;2024-03-08T09:56:29;101547.22;;;5.38;56.46
57234;BME280;43090;52.604;13.318;2024-03-08T09:59:01;101539.56;;;5.54;55.29
57234;BME280;43090;52.604;13.318;2024-03-08T10:02:00;101535.69;;;5.39;57.29
57234;BME280;43090;52.604;13.318;2024-03-08T10:11:09;101557.28;;;6.00;54.48
57234;BME280;43090;52.604;13.318;2024-03-08T10:13:41;101538.28;;;5.64;55.31
57234;BME280;43090;52.604;13.318;2024-03-08T11:32:14;101449.31;;;7.42;49.97
57234;BME280;43090;52.604;13.318;2024-03-08T11:34:48;101443.03;;;7.04;49.28
57234;BME280;43090;52.604;13.318;2024-03-08T11:37:17;101446.13;;;6.94;49.52
57234;BME280;43090;52.604;13.318;2024-03-08T11:39:52;101424.53;;;7.21;49.46
57234;BME280;43090;52.604;13.318;2024-03-08T11:42:19;101434.75;;;7.49;49.96
57234;BME280;43090;52.604;13.318;2024-03-08T11:44:46;101409.81;;;7.12;48.82
57234;BME280;43090;52.604;13.318;2024-03-08T11:47:15;101416.31;;;6.86;47.13
57234;BME280;43090;52.604;13.318;2024-03-08T11:49:43;101437.03;;;7.38;46.78
57234;BME280;43090;52.604;13.318;2024-03-08T11:52:16;101420.03;;;7.41;47.61
57234;BME280;43090;52.604;13.318;2024-03-08T11:54:56;101407.09;;;7.33;47.12
57234;BME280;43090;52.604;13.318;2024-03-08T11:57:25;101403.50;;;7.15;48.02
57234;BME280;43090;52.604;13.318;2024-03-08T11:59:53;101426.97;;;7.45;49.49
57234;BME280;43090;52.604;13.318;2024-03-08T12:02:23;101407.03;;;7.34;48.25
57234;BME280;43090;52.604;13.318;2024-03-08T12:04:57;101398.81;;;7.58;48.06
57234;BME280;43090;52.604;13.318;2024-03-08T12:07:24;101384.63;;;7.00;46.83
57234;BME280;43090;52.604;13.318;2024-03-08T12:10:16;101419.81;;;7.64;48.57
57234;BME280;43090;52.604;13.318;2024-03-08T12:12:47;101414.28;;;7.69;47.42
57234;BME280;43090;52.604;13.318;2024-03-08T12:15:22;101398.88;;;7.38;49.49
57234;BME280;43090;52.604;13.318;2024-03-08T12:17:51;101390.81;;;7.58;47.89
57234;BME280;43090;52.604;13.318;2024-03-08T12:20:21;101400.78;;;7.91;47.09
57234;BME280;43090;52.604;13.318;2024-03-08T12:23:02;101364.34;;;7.36;47.06
57234;BME280;43090;52.604;13.318;2024-03-08T12:25:33;101348.81;;;7.63;47.99
57234;BME280;43090;52.604;13.318;2024-03-08T12:28:13;101364.50;;;7.87;46.26
57234;BME280;43090;52.604;13.318;2024-03-08T12:30:47;101351.16;;;7.70;46.58
57234;BME280;43090;52.604;13.318;2024-03-08T12:33:54;101380.56;;;8.05;47.51
57234;BME280;43090;52.604;13.318;2024-03-08T12:36:32;101350.72;;;7.79;46.67
57234;BME280;43090;52.604;13.318;2024-03-08T12:45:27;101323.31;;;7.21;46.33
57234;BME280;43090;52.604;13.318;2024-03-08T12:52:10;101360.78;;;7.91;45.97
57234;BME280;43090;52.604;13.318;2024-03-08T13:52:37;101287.72;;;8.29;45.92
57234;BME280;43090;52.604;13.318;2024-03-08T13:59:44;101264.56;;;8.29;45.39
57234;BME280;43090;52.604;13.318;2024-03-08T14:05:34;101230.66;;;7.98;45.99
57234;BME280;43090;52.604;13.318;2024-03-08T14:36:47;101198.84;;;7.60;47.18
57234;BME280;43090;52.604;13.318;2024-03-08T14:59:20;101210.94;;;8.18;46.48
57234;BME280;43090;52.604;13.318;2024-03-08T15:01:46;101171.13;;;7.97;44.99
57234;BME280;43090;52.604;13.318;2024-03-08T15:04:13;101169.88;;;8.05;45.81
57234;BME280;43090;52.604;13.318;2024-03-08T15:06:52;101185.72;;;8.24;44.18
57234;BME280;43090;52.604;13.318;2024-03-08T15:09:19;101195.97;;;8.15;45.50
57234;BME280;43090;52.604;13.318;2024-03-08T15:12:18;101188.81;;;8.16;46.55
57234;BME280;43090;52.604;13.318;2024-03-08T15:15:19;101170.75;;;7.88;46.71
57234;BME280;43090;52.604;13.318;2024-03-08T15:17:48;101184.19;;;8.36;46.47
57234;BME280;43090;52.604;13.318;2024-03-08T15:30:05;101170.69;;;7.89;47.65
57234;BME280;43090;52.604;13.318;2024-03-08T15:33:09;101133.53;;;7.68;47.47
57234;BME280;43090;52.604;13.318;2024-03-08T15:35:48;101144.75;;;7.58;46.72
57234;BME280;43090;52.604;13.318;2024-03-08T15:38:25;101139.31;;;7.61;48.46
57234;BME280;43090;52.604;13.318;2024-03-08T15:40:54;101151.41;;;7.84;47.89
57234;BME280;43090;52.604;13.318;2024-03-08T15:43:33;101117.63;;;7.67;48.18
57234;BME280;43090;52.604;13.318;2024-03-08T15:46:01;101149.72;;;7.99;46.87
57234;BME280;43090;52.604;13.318;2024-03-08T15:48:31;101132.28;;;7.76;47.50
57234;BME280;43090;52.604;13.318;2024-03-08T15:50:59;101136.78;;;7.58;46.95
57234;BME280;43090;52.604;13.318;2024-03-08T15:53:28;101120.25;;;7.51;46.78
57234;BME280;43090;52.604;13.318;2024-03-08T15:55:57;101109.22;;;7.41;46.22
57234;BME280;43090;52.604;13.318;2024-03-08T15:58:25;101119.63;;;7.46;47.09
57234;BME280;43090;52.604;13.318;2024-03-08T16:00:52;101119.16;;;7.38;47.93
57234;BME280;43090;52.604;13.318;2024-03-08T16:03:22;101133.97;;;7.61;48.07
57234;BME280;43090;52.604;13.318;2024-03-08T16:05:49;101135.31;;;7.52;47.84
57234;BME280;43090;52.604;13.318;2024-03-08T16:08:17;101114.56;;;7.24;48.26
57234;BME280;43090;52.604;13.318;2024-03-08T16:10:48;101140.00;;;7.47;47.70
57234;BME280;43090;52.604;13.318;2024-03-08T16:13:24;101131.63;;;7.37;48.63
57234;BME280;43090;52.604;13.318;2024-03-08T16:15:53;101121.03;;;7.00;47.39
57234;BME280;43090;52.604;13.318;2024-03-08T16:18:21;101113.22;;;7.15;48.73
57234;BME280;43090;52.604;13.318;2024-03-08T16:20:55;101086.72;;;6.94;48.21
57234;BME280;43090;52.604;13.318;2024-03-08T16:23:23;101127.75;;;7.08;48.19
57234;BME280;43090;52.604;13.318;2024-03-08T16:25:50;101120.09;;;7.02;52.12
57234;BME280;43090;52.604;13.318;2024-03-08T16:28:19;101130.19;;;6.95;50.07
57234;BME280;43090;52.604;13.318;2024-03-08T16:30:50;101121.47;;;6.74;48.55
57234;BME280;43090;52.604;13.318;2024-03-08T16:33:21;101115.13;;;6.76;49.35
57234;BME280;43090;52.604;13.318;2024-03-08T16:35:51;101103.78;;;6.73;51.02
57234;BME280;43090;52.604;13.318;2024-03-08T16:38:18;101118.03;;;6.89;50.93
57234;BME280;43090;52.604;13.318;2024-03-08T16:40:54;101120.66;;;6.91;49.76
57234;BME280;43090;52.604;13.318;2024-03-08T16:43:27;101111.56;;;6.58;53.06
57234;BME280;43090;52.604;13.318;2024-03-08T16:45:54;101118.34;;;6.65;51.35
57234;BME280;43090;52.604;13.318;2024-03-08T16:48:22;101101.09;;;6.36;51.58
57234;BME280;43090;52.604;13.318;2024-03-08T16:50:51;101071.38;;;6.09;51.51
57234;BME280;43090;52.604;13.318;2024-03-08T16:53:17;101090.09;;;6.06;52.49
57234;BME280;43090;52.604;13.318;2024-03-08T16:55:45;101092.00;;;6.04;51.72
57234;BME280;43090;52.604;13.318;2024-03-08T16:58:13;101065.97;;;6.10;51.51
57234;BME280;43090;52.604;13.318;2024-03-08T17:00:41;101089.91;;;5.90;53.83
57234;BME280;43090;52.604;13.318;2024-03-08T17:03:08;101089.31;;;6.04;53.37
57234;BME280;43090;52.604;13.318;2024-03-08T17:05:35;101105.28;;;6.04;52.17
57234;BME280;43090;52.604;13.318;2024-03-08T17:08:04;101101.97;;;5.98;53.20
57234;BME280;43090;52.604;13.318;2024-03-08T17:10:35;101107.28;;;5.78;51.95
57234;BME280;43090;52.604;13.318;2024-03-08T17:13:03;101095.59;;;5.82;53.90
57234;BME280;43090;52.604;13.318;2024-03-08T17:15:31;101086.38;;;5.70;54.57
57234;BME280;43090;52.604;13.318;2024-03-08T17:18:00;101108.28;;;5.75;53.64